Bailing-Miao, China
Current Conditions -  °F | °C
As of 7:00 PM on Friday 28 Nov 2014 (Local Time) from ZBHH Reporting Station
Haze Haze  
Wind Chill: 15°   Ceiling: Unl
Heat Index: 25°   Visibility: 3mi
Dew Point: 21°   Wind: 9mph
Humidity: 86%   Direction: 50°NE
Pressure: 29.97"   Gusts: NA
Location:  41.7°N, 110.43°E
Report Text: ZBHH 281100Z 05004MPS 5000 BR NSC M04/M06 Q1015 NOSIG
Loading
Personal Weather Stations






























Interactive Weather Map New forecast layout! Learn more

10-Day Weather Forecast

Advertisements
Track Severe Weather on mobile